メインページ
METAR-TAF:

METAR-TAF

空港 :

アンマン, ヨルダン

緯度: 31-59N, 経度: 035-59E, 海抜: 767m

現時点の気象観測

当レポートは1時間5分前の04:00(UTC)に作成
西/南西の風 4kt
気温 16°C
湿度 82%
気圧 1017 hPa
視程: 4000m
煙霧

METAR: OJAM 210400Z 25004KT 4000 HZ NSC 16/13 Q1017 NOSIG

時間: 08:05 (05:05 UTC)

予報

当レポートは6時間15分前の22:50(UTC)に作成
予報は21日の 00時(UTC)から 22日の 06時(UTC)まで有効
変向風 2kt
視程: 5000m
煙霧
21日の 00時(UTC)から 21日の 06時(UTC)まで一時的に
視程: 3000m
21日の 06時(UTC)から 21日の 08時(UTC)まで徐々に
西/北西の風 6kt

TAF: OJAM 202250Z 2100/2206 VRB02KT 5000 HZ NSC TEMPO 2100/2106 3000 BR BECMG 2106/2108 29006KT

4,000以上の空港の気象観測と天気予報(METAR報とTAF報)

利用可能な観測所は地図上に黄色い丸と赤い丸で示す。

丸の上にカーソルを重ねると観測所名を参照できる。

次にクリックすると気象観測と天気予報を参照できる。

マップの切り替え:黒色「×」印の緑ボタンをクリックして拡大、「-」印の緑ボタンをクリックして縮小、緑色の三角印をクリックして隣りの地図に切り替え


METAR-TAF: